Avon, Massachusetts
Current Conditions -  °F | °C
As of 12:53 AM on Sunday 23 Nov 2014 (Local Time) from KOWD Reporting Station
Scattered Clouds Scattered Clouds  
Wind Chill:   Ceiling: Unl
Heat Index:   Visibility: 10mi
Dew Point: -6°   Wind: 6mph
Humidity: 42%   Direction: 230°SW
Pressure: 30.07"   Gusts: NA
Location:  42.13°N, 71.04°W
Report Text: KOWD 230553Z AUTO 23005KT 10SM SCT070 07/M06 A3007 RMK AO2 SLP184 T00671056 10067 20039 56007
Loading
Personal Weather Stations






























Interactive Weather Map New forecast layout! Learn more

10-Day Weather Forecast

Advertisements
Track Severe Weather on mobile